Huvudsida
METAR-TAF:

METAR-TAF

Flygplatser :

Calvi, Frankrike

latitud: 42-32N, longitud: 008-48E, höjd: 64 m

Aktuellt väderrapport

Denna rapport gjordes för 28 minuter sedan, klockan 21:00 UTC
Vind 3 kt från syd/sydväst
Temperatur 19°C
Fuktighet 64%
Tryck 1014 hPa
Sikt 10 km eller mer
Inga moln under 1 500 m eller inga cumulonimbus

METAR: LFKC 192100Z AUTO 20003KT CAVOK 19/12 Q1014

Tid: 23:28 (21:28 UTC)

Väderprognos

Denna rapport gjordes för 7 timmar och 28 minuter sedan, klockan 14:00 UTC
Prognos gäller från 19 kl. 15 UTC till 20 kl. 15 UTC
Vind 12 kt från nordost
Sikt 10 km eller mer
Inga moln under 1 500 m eller inga cumulonimbus
Blir
från 19 kl. 17 UTC till 19 kl. 20 UTC
Vind 4 kt från syd
Blir
från 20 kl. 09 UTC till 20 kl. 12 UTC
Vind 10 kt från nord/nordväst

TAF: LFKC 191400Z 1915/2015 04012KT CAVOK TX28/2012Z TN16/2003Z BECMG 1917/1920 18004KT BECMG 2009/2012 34010KT

Aktuella väderrapporter och prognoser från 4000 flygplatser (METAR- och TAF-rapporter).

De tillgängliga stationerna syns som gula och röda prickar på kartan.

För musen över prickarna för att se namnen på stationerna.

Klicka sedan för att få väderrapporter och prognoser.

För att ändra kartan: Klicka på de gröna knapparna med ett svart kors på för att zooma in; den gröna knappen med ett streck på för att zooma ut; eller på de gröna pilarna för angränsande kartor.


METAR-TAF: